Milford, NJ

5:37 AM EST on December 28, 2014 (GMT -0500)
schick reserve | Change Station
CLOSE
Current Station
Personal Weather Station
Location: Milford, NJ
Elevation: 358 ft
Nearby Weather Stations

Elev 358 ft 40.61 °N, 75.07 °W | Updated 4 seconds ago

Rain
Rain
38.5 °F
Feels Like 38 °F
N
0.1
Wind Variable Wind from North
Gusts 2.2 mph

Today
High -- | Low -- °F
--% Chance of Precip.
Yesterday
High -- | Low -- °F
Precip. -- in
7:23 AM 4:40 PM
Waxing Crescent, 46% visible
Pressure 29.92 in
Visibility 10.0 miles
Clouds Mostly Cloudy 5500 ft
Overcast 6500 ft
Windchill 38 °F
Dew Point 36 °F
Humidity 92%
Rainfall 0.00 in
Snow Depth Not available.
UV 0 out of 12
Pollen .10 out of 12
Air Quality Not available.
Flu Activity Not available.
METAR KDYL 280954Z AUTO 20004KT 10SM BKN055 OVC065 06/03 A2991 RMK AO2 RAB25E49 SLP130 P0000 T00560033

More Conditions Fewer Conditions

Pressure 29.92 in
Visibility 10.0 miles
Clouds Mostly Cloudy 5500 ft
Overcast 6500 ft
Windchill 38 °F
Dew Point 36 °F
Humidity 92%
Rainfall 0.00 in
Snow Depth Not available.
UV 0 out of 12
Pollen .10 out of 12
Air Quality Not available.
Flu Activity Not available.
METAR KDYL 280954Z AUTO 20004KT 10SM BKN055 OVC065 06/03 A2991 RMK AO2 RAB25E49 SLP130 P0000 T00560033

More Conditions Fewer Conditions

10-Day Weather Forecast

Almanac

Astronomy

Dec. 28, 2014 Rise Set
Actual Time
Civil Twilight
Nautical Twilight
Astronomical Twilight
Moon
Length of Visible Light
Length of Day
Tomorrow will be .
, % of the Moon is Illuminated

Today's Extremes

State Highs State Lows

Community

WunderPhotos

Upload Photos

1,781,232 photos uploaded!

WunderBlogs® & News

Nearby

Air Quality

  Air Quality AQ Index Pollutant
Not available.

Snow Depth

Station Depth Elevation

Earthquake Activity

City Distance Mag. Time & Date
Minimum magnitude displayed is 2.5.

Coastal Water Temperatures

Place Temperature

Nearby Weather Stations